Time;durP1;ratioP1;P1;durP2;ratioP2;P2;SDS_P1;SDS_P2;PMS_P1;PMS_P2;Temp;Humidity;BMP_temperature;BMP_pressure;BME280_temperature;BME280_humidity;BME280_pressure;Samples;Min_cycle;Max_cycle;Signal;HPM_P1;HPM_P2
2021/12/13 00:00:12;;;;;;;;;;;;;;;3.32;85.73;97502.16;4994963;28;19966;-78
2021/12/13 00:02:51;;;;;;;;;;;;;;;3.30;85.90;97501.50;4977842;28;19967;-78
2021/12/13 00:05:20;;;;;;;;;;;;;;;3.28;86.10;97511.19;4994911;28;19961;-78
2021/12/13 00:07:52;;;;;;;;;;;;;;;3.27;86.01;97506.16;4994996;28;19962;-77
2021/12/13 00:10:19;;;;;;;;;;;;;;;3.27;85.96;97499.19;4977793;28;19956;-78
2021/12/13 00:12:48;;;;;;;;;;;;;;;3.30;86.14;97506.69;4994912;28;20454;-77
2021/12/13 00:15:16;;;;;;;;;;;;;;;3.31;86.11;97502.31;4994795;28;19961;-78
2021/12/13 00:17:45;;;;;;;;;;;;;;;3.34;86.10;97497.66;4994322;28;20452;-77
2021/12/13 00:20:13;;;;;;;;;;;;;;;3.33;86.26;97501.19;4994989;28;19955;-78
2021/12/13 00:22:41;;;;;;;;;;;;;;;3.31;86.30;97497.13;4994006;28;19963;-77
2021/12/13 00:25:08;;;;;;;;;;;;;;;3.31;86.19;97491.94;4994793;28;19956;-78
2021/12/13 00:27:38;;;;;;;;;;;;;;;3.32;86.27;97483.19;4994059;28;19966;-78
2021/12/13 00:30:16;;;;;;;;;;;;;;;3.32;86.29;97489.19;4994635;28;20389;-77
2021/12/13 00:33:01;;;;;;;;;;;;;;;3.35;86.35;97498.47;4980916;28;19966;-78
2021/12/13 00:35:33;;;;;;;;;;;;;;;3.38;86.45;97498.16;4977265;28;19955;-78
2021/12/13 00:38:02;;;;;;;;;;;;;;;3.38;86.39;97500.75;4994674;28;19952;-78
2021/12/13 00:40:49;;;;;;;;;;;;;;;3.38;86.43;97496.41;4994389;28;19958;-78
2021/12/13 00:43:19;;;;;;;;;;;;;;;3.40;86.51;97504.00;4977109;28;19959;-79
2021/12/13 00:45:52;;;;;;;;;;;;;;;3.43;86.39;97503.72;4994723;28;19962;-77
2021/12/13 00:48:17;;;;;;;;;;;;;;;3.47;86.30;97505.06;4994222;28;19954;-77
2021/12/13 00:50:50;;;;;;;;;;;;;;;3.52;86.49;97504.63;4976994;28;20024;-77
2021/12/13 00:53:17;;;;;;;;;;;;;;;3.52;85.88;97505.44;4977144;28;19967;-78
2021/12/13 00:55:44;;;;;;;;;;;;;;;3.55;85.67;97499.13;4994268;28;19950;-77
2021/12/13 00:58:12;;;;;;;;;;;;;;;3.56;85.67;97496.41;4994523;28;19970;-77
2021/12/13 01:00:38;;;;;;;;;;;;;;;3.55;85.57;97501.72;4993478;28;20395;-78
2021/12/13 01:03:13;;;;;;;;;;;;;;;3.55;85.62;97504.31;4976736;28;19996;-78
2021/12/13 01:05:57;;;;;;;;;;;;;;;3.55;85.70;97499.97;4994238;28;19958;-78
2021/12/13 01:08:41;;;;;;;;;;;;;;;3.57;85.75;97502.41;4994018;28;19961;-78
2021/12/13 01:11:16;;;;;;;;;;;;;;;3.54;85.59;97503.50;4994068;28;19950;-78
2021/12/13 01:13:45;;;;;;;;;;;;;;;3.55;85.87;97499.97;4993834;28;19966;-78
2021/12/13 01:16:39;;;;;;;;;;;;;;;3.56;85.64;97500.78;4977212;28;19958;-78
2021/12/13 01:19:29;;;;;;;;;;;;;;;3.57;85.40;97503.22;4994041;28;19992;-78
2021/12/13 01:22:01;;;;;;;;;;;;;;;3.56;85.29;97509.38;4984453;28;19957;-78
2021/12/13 01:25:04;;;;;;;;;;;;;;;3.56;85.58;97511.97;4993918;28;19974;-79
2021/12/13 01:27:31;;;;;;;;;;;;;;;3.59;86.01;97508.25;4993942;28;19955;-78
2021/12/13 01:29:57;;;;;;;;;;;;;;;3.61;85.61;97514.09;4994050;28;19951;-78
2021/12/13 01:32:25;;;;;;;;;;;;;;;3.62;85.90;97518.34;4994093;28;20076;-78
2021/12/13 01:34:51;;;;;;;;;;;;;;;3.61;85.58;97522.72;4997890;28;20435;-78
2021/12/13 01:37:18;;;;;;;;;;;;;;;3.59;85.29;97518.63;4997959;28;19967;-78
2021/12/13 01:39:46;;;;;;;;;;;;;;;3.59;85.82;97516.88;4997690;28;20348;-78
2021/12/13 01:42:23;;;;;;;;;;;;;;;3.62;85.94;97520.94;4997981;28;19954;-78
2021/12/13 01:44:53;;;;;;;;;;;;;;;3.64;85.66;97519.03;4997525;28;19959;-77
2021/12/13 01:47:28;;;;;;;;;;;;;;;3.65;85.67;97524.06;4997788;28;20311;-77
2021/12/13 01:49:58;;;;;;;;;;;;;;;3.65;85.46;97524.06;4997541;28;20307;-77
2021/12/13 01:52:30;;;;;;;;;;;;;;;3.57;85.59;97523.97;4997714;28;19972;-77
2021/12/13 01:55:00;;;;;;;;;;;;;;;3.57;85.70;97518.78;4984578;28;19959;-77
2021/12/13 01:57:39;;;;;;;;;;;;;;;3.58;85.92;97522.19;4997570;28;19959;-78
2021/12/13 02:00:18;;;;;;;;;;;;;;;3.61;86.29;97521.88;4997461;28;19953;-78
2021/12/13 02:02:53;;;;;;;;;;;;;;;3.63;86.35;97512.19;4997653;28;19956;-78
2021/12/13 02:05:22;;;;;;;;;;;;;;;3.63;86.17;97517.38;4997216;28;19952;-78
2021/12/13 02:07:53;;;;;;;;;;;;;;;3.64;86.26;97517.22;4979707;28;19964;-78
2021/12/13 02:10:27;;;;;;;;;;;;;;;3.63;86.58;97517.38;4980075;28;19959;-79
2021/12/13 02:12:58;;;;;;;;;;;;;;;3.63;86.61;97515.63;4997479;28;19967;-78
2021/12/13 02:18:11;;;;;;;;;;;;;;;3.67;86.51;97521.31;4996918;28;19983;-78
2021/12/13 02:20:40;;;;;;;;;;;;;;;3.69;86.29;97518.56;4997018;28;19962;-78
2021/12/13 02:23:06;;;;;;;;;;;;;;;3.72;86.45;97520.88;4996822;28;19972;-78
2021/12/13 02:25:41;;;;;;;;;;;;;;;3.71;85.95;97509.66;4997140;28;19962;-78
2021/12/13 02:28:09;;;;;;;;;;;;;;;3.73;85.93;97519.91;4986660;28;19953;-78
2021/12/13 02:30:41;;;;;;;;;;;;;;;3.72;85.90;97519.09;4996692;28;19959;-78
2021/12/13 02:33:10;;;;;;;;;;;;;;;3.68;86.17;97520.34;4979325;28;19967;-78
2021/12/13 02:35:41;;;;;;;;;;;;;;;3.68;86.42;97517.75;4979505;28;19966;-78
2021/12/13 02:38:09;;;;;;;;;;;;;;;3.69;86.42;97518.56;4988680;28;19965;-78
2021/12/13 02:40:35;;;;;;;;;;;;;;;3.69;86.32;97521.97;4979175;28;19960;-78
2021/12/13 02:43:02;;;;;;;;;;;;;;;3.71;86.32;97530.41;4996582;28;19971;-78
2021/12/13 02:45:32;;;;;;;;;;;;;;;3.72;86.53;97515.69;4995549;28;19952;-78
2021/12/13 02:48:05;;;;;;;;;;;;;;;3.75;86.69;97520.56;4996706;28;19965;-78
2021/12/13 02:50:35;;;;;;;;;;;;;;;3.76;86.63;97517.84;4996932;28;19954;-78
2021/12/13 02:53:04;;;;;;;;;;;;;;;3.77;86.41;97519.47;4996130;28;19964;-78
2021/12/13 02:55:30;;;;;;;;;;;;;;;3.78;86.53;97512.47;4979068;28;19963;-79
2021/12/13 02:57:58;;;;;;;;;;;;;;;3.81;86.65;97517.38;4996366;28;19965;-78
2021/12/13 03:00:27;;;;;;;;;;;;;;;3.82;86.79;97516.41;4996410;28;19955;-78
2021/12/13 03:02:55;;;;;;;;;;;;;;;3.83;86.59;97512.88;4996365;28;19950;-78
2021/12/13 03:05:31;;;;;;;;;;;;;;;3.83;86.50;97515.47;4996122;28;19953;-78
2021/12/13 03:08:02;;;;;;;;;;;;;;;3.83;86.47;97518.88;4995965;28;19958;-78
2021/12/13 03:10:34;;;;;;;;;;;;;;;3.81;86.37;97518.19;4996391;28;19957;-78
2021/12/13 03:13:00;;;;;;;;;;;;;;;3.83;86.74;97515.47;4996170;28;19972;-78
2021/12/13 03:15:28;;;;;;;;;;;;;;;3.84;86.72;97509.28;4995884;28;19954;-78
2021/12/13 03:18:06;;;;;;;;;;;;;;;3.85;86.68;97509.16;4996069;28;19982;-78
2021/12/13 03:20:33;;;;;;;;;;;;;;;3.87;86.63;97516.78;4978425;28;19980;-78
2021/12/13 03:23:08;;;;;;;;;;;;;;;3.85;86.54;97522.13;4995852;28;20310;-78
2021/12/13 03:25:53;;;;;;;;;;;;;;;3.85;86.51;97516.94;4995853;28;19968;-80
2021/12/13 03:28:37;;;;;;;;;;;;;;;3.85;86.70;97519.53;4995602;28;19968;-78
2021/12/13 03:31:11;;;;;;;;;;;;;;;3.81;86.42;97522.59;4995794;28;20336;-78
2021/12/13 03:34:00;;;;;;;;;;;;;;;3.77;86.69;97513.47;4978362;28;19966;-78
2021/12/13 03:36:45;;;;;;;;;;;;;;;3.75;86.70;97518.78;4985083;28;19960;-78
2021/12/13 03:39:12;;;;;;;;;;;;;;;3.73;86.76;97512.94;4995488;28;19956;-77
2021/12/13 03:41:41;;;;;;;;;;;;;;;3.73;86.99;97518.13;4995733;28;19959;-77
2021/12/13 03:44:11;;;;;;;;;;;;;;;3.75;87.00;97523.16;4995265;28;19958;-77
2021/12/13 03:46:37;;;;;;;;;;;;;;;3.76;87.11;97520.44;4995236;28;19973;-77
2021/12/13 03:49:04;;;;;;;;;;;;;;;3.76;87.03;97523.03;4995407;28;20413;-77
2021/12/13 03:51:32;;;;;;;;;;;;;;;3.77;87.06;97522.06;4995389;28;19961;-77
2021/12/13 03:54:02;;;;;;;;;;;;;;;3.78;87.18;97517.66;4995189;28;20360;-77
2021/12/13 03:56:30;;;;;;;;;;;;;;;3.79;87.18;97517.53;4994994;28;19948;-77
2021/12/13 03:59:05;;;;;;;;;;;;;;;3.77;87.09;97522.06;4977933;28;19958;-78
2021/12/13 04:01:42;;;;;;;;;;;;;;;3.76;86.94;97514.41;4995192;28;19950;-78
2021/12/13 04:04:16;;;;;;;;;;;;;;;3.77;87.35;97519.47;4995196;28;19948;-79
2021/12/13 04:06:47;;;;;;;;;;;;;;;3.78;87.16;97521.09;4995277;28;20419;-77
2021/12/13 04:09:13;;;;;;;;;;;;;;;3.78;87.08;97528.03;4995066;28;20336;-77
2021/12/13 04:11:41;;;;;;;;;;;;;;;3.78;87.19;97523.69;4977928;28;19965;-77
2021/12/13 04:14:15;;;;;;;;;;;;;;;3.77;87.16;97529.84;4977331;28;19978;-79
2021/12/13 04:16:49;;;;;;;;;;;;;;;3.77;87.27;97521.25;4977795;28;19970;-77
2021/12/13 04:19:22;;;;;;;;;;;;;;;3.76;87.24;97515.25;4995396;28;20036;-77
2021/12/13 04:21:48;;;;;;;;;;;;;;;3.76;87.57;97523.03;4995084;28;19964;-77
2021/12/13 04:24:19;;;;;;;;;;;;;;;3.77;87.52;97522.06;4994702;28;19962;-78
2021/12/13 04:26:51;;;;;;;;;;;;;;;3.80;87.38;97533.91;4994758;28;19958;-78
2021/12/13 04:29:19;;;;;;;;;;;;;;;3.80;87.30;97524.38;4994886;28;19956;-77
2021/12/13 04:31:45;;;;;;;;;;;;;;;3.78;87.61;97530.66;4994846;28;19957;-78
2021/12/13 04:34:11;;;;;;;;;;;;;;;3.77;87.52;97532.44;4994576;28;19967;-77
2021/12/13 04:36:41;;;;;;;;;;;;;;;3.78;87.51;97530.66;4977426;28;19960;-77
2021/12/13 04:39:11;;;;;;;;;;;;;;;3.81;87.58;97527.78;4977293;28;19954;-78
2021/12/13 04:41:43;;;;;;;;;;;;;;;3.83;87.67;97521.47;4994773;28;19953;-77
2021/12/13 04:44:16;;;;;;;;;;;;;;;3.85;87.68;97529.91;4995080;28;19961;-76
2021/12/13 04:46:42;;;;;;;;;;;;;;;3.86;87.52;97526.38;4994456;28;20396;-77
2021/12/13 04:49:12;;;;;;;;;;;;;;;3.89;87.56;97537.41;4977126;28;20412;-77
2021/12/13 04:51:58;;;;;;;;;;;;;;;3.90;87.34;97529.47;4993820;28;20435;-77
2021/12/13 04:54:25;;;;;;;;;;;;;;;3.91;87.31;97532.91;4976205;28;20339;-77
2021/12/13 04:56:52;;;;;;;;;;;;;;;3.91;87.39;97536.28;4969196;28;20316;-78
2021/12/13 04:59:18;;;;;;;;;;;;;;;3.91;87.36;97538.09;4994511;28;19970;-77
2021/12/13 05:01:47;;;;;;;;;;;;;;;3.93;87.56;97541.34;4994919;28;19961;-77
2021/12/13 05:04:14;;;;;;;;;;;;;;;3.93;87.88;97538.75;4994256;28;19980;-77
2021/12/13 05:06:41;;;;;;;;;;;;;;;3.93;87.30;97539.56;4994382;28;19965;-78
2021/12/13 05:09:08;;;;;;;;;;;;;;;3.94;87.29;97537.78;4993665;28;20433;-78
2021/12/13 05:11:36;;;;;;;;;;;;;;;3.94;87.19;97536.00;4994492;28;19952;-77
2021/12/13 05:14:04;;;;;;;;;;;;;;;3.94;87.42;97532.59;4994170;28;19969;-79
2021/12/13 05:16:41;;;;;;;;;;;;;;;3.94;87.83;97537.78;4994203;28;19949;-78
2021/12/13 05:19:09;;;;;;;;;;;;;;;3.92;87.53;97539.69;4993854;28;19978;-77
2021/12/13 05:21:46;;;;;;;;;;;;;;;3.89;87.74;97540.81;4994264;28;20344;-78
2021/12/13 05:24:32;;;;;;;;;;;;;;;3.86;87.65;97546.28;4961349;28;19957;-77
2021/12/13 05:27:07;;;;;;;;;;;;;;;3.86;87.91;97547.13;4976084;28;19949;-77
2021/12/13 05:29:41;;;;;;;;;;;;;;;3.89;87.72;97540.81;4994322;28;19981;-77
2021/12/13 05:32:13;;;;;;;;;;;;;;;3.89;87.77;97537.41;4994144;28;20309;-78
2021/12/13 05:34:50;;;;;;;;;;;;;;;3.86;87.86;97549.72;4994070;28;19972;-77
2021/12/13 05:37:19;;;;;;;;;;;;;;;3.87;87.96;97547.94;4993372;28;19964;-78
2021/12/13 05:39:59;;;;;;;;;;;;;;;3.91;88.30;97564.03;4994106;28;20329;-77
2021/12/13 05:42:39;;;;;;;;;;;;;;;3.91;88.09;97557.06;4985600;28;20423;-78
2021/12/13 05:45:07;;;;;;;;;;;;;;;3.93;88.25;97564.72;4982725;28;19956;-77
2021/12/13 05:47:33;;;;;;;;;;;;;;;3.95;87.80;97560.16;4994223;28;20303;-77
2021/12/13 05:50:00;;;;;;;;;;;;;;;3.97;87.93;97563.41;4993822;28;19968;-78
2021/12/13 05:52:34;;;;;;;;;;;;;;;3.99;88.01;97571.88;4993947;28;20061;-77
2021/12/13 05:55:03;;;;;;;;;;;;;;;4.01;88.11;97572.53;4993441;28;19971;-78
2021/12/13 05:57:32;;;;;;;;;;;;;;;4.02;88.29;97574.19;4993856;28;19954;-78
2021/12/13 06:00:02;;;;;;;;;;;;;;;4.04;88.11;97578.25;4993722;28;19961;-78
2021/12/13 06:02:38;;;;;;;;;;;;;;;4.06;88.06;97567.72;4993812;28;20434;-77
2021/12/13 06:05:06;;;;;;;;;;;;;;;4.09;88.14;97577.00;4994062;28;19961;-78
2021/12/13 06:07:38;;;;;;;;;;;;;;;4.10;88.16;97583.84;4993562;28;19956;-78
2021/12/13 06:10:10;;;;;;;;;;;;;;;4.12;88.17;97579.31;4993797;28;19960;-78
2021/12/13 06:12:45;;;;;;;;;;;;;;;4.12;88.21;97584.50;4976498;28;20339;-77
2021/12/13 06:15:17;;;;;;;;;;;;;;;4.13;88.07;97576.53;4993680;28;19970;-78
2021/12/13 06:17:55;;;;;;;;;;;;;;;4.13;87.94;97571.34;4993495;28;20065;-78
2021/12/13 06:20:23;;;;;;;;;;;;;;;4.15;88.28;97587.59;4995214;28;19953;-78
2021/12/13 06:22:51;;;;;;;;;;;;;;;4.15;88.36;97576.41;4996510;28;21398;-77
2021/12/13 06:25:19;;;;;;;;;;;;;;;4.16;88.17;97572.84;4997322;28;19972;-77
2021/12/13 06:27:48;;;;;;;;;;;;;;;4.17;87.99;97574.47;4997093;28;19960;-78
2021/12/13 06:30:19;;;;;;;;;;;;;;;4.17;87.96;97569.28;4997080;28;20442;-78
2021/12/13 06:32:48;;;;;;;;;;;;;;;4.16;87.95;97571.06;4979538;28;19980;-77
2021/12/13 06:35:26;;;;;;;;;;;;;;;4.17;87.99;97572.69;4996895;28;19990;-78
2021/12/13 06:37:52;;;;;;;;;;;;;;;4.18;88.18;97574.34;4996919;28;19957;-77
2021/12/13 06:40:27;;;;;;;;;;;;;;;4.19;88.38;97572.53;4997021;28;19978;-78
2021/12/13 06:42:54;;;;;;;;;;;;;;;4.18;88.63;97574.34;4996770;28;19952;-78
2021/12/13 06:45:35;;;;;;;;;;;;;;;4.19;88.68;97575.16;4996752;28;19962;-77
2021/12/13 06:48:03;;;;;;;;;;;;;;;4.19;88.70;97577.75;4979310;28;19976;-77
2021/12/13 06:50:31;;;;;;;;;;;;;;;4.18;88.74;97576.09;4997050;28;19962;-78
2021/12/13 06:53:12;;;;;;;;;;;;;;;4.18;88.83;97576.94;4996297;28;19951;-77
2021/12/13 06:55:38;;;;;;;;;;;;;;;4.19;88.98;97585.53;4996674;28;19963;-78
2021/12/13 06:58:12;;;;;;;;;;;;;;;4.15;89.85;97603.19;4996675;28;20407;-77
2021/12/13 07:00:38;;;;;;;;;;;;;;;4.11;90.41;97595.84;4963146;28;19948;-77
2021/12/13 07:03:07;;;;;;;;;;;;;;;4.06;90.59;97591.91;4996505;28;20029;-77
2021/12/13 07:05:37;;;;;;;;;;;;;;;4.04;91.57;97593.03;4996344;28;19947;-77
2021/12/13 07:08:05;;;;;;;;;;;;;;;3.99;92.15;97596.06;4996144;28;19953;-77
2021/12/13 07:10:33;;;;;;;;;;;;;;;3.97;91.87;97597.16;4979236;28;19960;-78
2021/12/13 07:13:09;;;;;;;;;;;;;;;3.95;92.48;97604.28;4996299;28;19955;-78
2021/12/13 07:15:46;;;;;;;;;;;;;;;3.93;92.42;97599.25;4996202;28;20403;-78
2021/12/13 07:18:15;;;;;;;;;;;;;;;3.92;93.10;97600.19;4996075;28;19974;-78
2021/12/13 07:21:01;;;;;;;;;;;;;;;3.93;93.44;97601.84;4996637;28;19967;-78
2021/12/13 07:23:28;;;;;;;;;;;;;;;3.90;93.63;97604.72;4964129;28;19952;-78
2021/12/13 07:25:54;;;;;;;;;;;;;;;3.86;93.99;97601.63;4995910;28;19967;-78
2021/12/13 07:28:28;;;;;;;;;;;;;;;3.84;94.23;97606.16;4996091;28;19963;-78
2021/12/13 07:30:55;;;;;;;;;;;;;;;3.84;94.53;97602.72;4995349;28;19963;-78
2021/12/13 07:33:32;;;;;;;;;;;;;;;3.86;94.25;97605.97;4995597;28;19956;-78
2021/12/13 07:35:58;;;;;;;;;;;;;;;3.89;94.49;97610.09;4996176;28;19960;-78
2021/12/13 07:38:28;;;;;;;;;;;;;;;3.94;94.29;97615.63;4995665;28;20425;-77
2021/12/13 07:41:04;;;;;;;;;;;;;;;3.96;94.04;97617.13;4978853;28;20375;-77
2021/12/13 07:43:34;;;;;;;;;;;;;;;4.00;93.89;97612.44;4996472;28;19950;-78
2021/12/13 07:46:11;;;;;;;;;;;;;;;4.01;94.12;97622.69;4995821;28;19956;-77
2021/12/13 07:48:40;;;;;;;;;;;;;;;4.01;94.09;97619.25;4977986;28;19963;-77
2021/12/13 07:51:06;;;;;;;;;;;;;;;4.01;94.42;97620.09;4995590;28;19967;-77
2021/12/13 07:53:37;;;;;;;;;;;;;;;4.01;94.21;97625.28;4995209;28;20018;-77
2021/12/13 07:56:04;;;;;;;;;;;;;;;4.03;94.23;97630.31;4995433;28;19955;-77
2021/12/13 07:58:42;;;;;;;;;;;;;;;4.06;94.28;97630.03;4995277;28;19957;-77
2021/12/13 08:01:19;;;;;;;;;;;;;;;4.09;94.29;97628.91;4978340;28;19961;-78
2021/12/13 08:03:52;;;;;;;;;;;;;;;4.11;94.59;97629.59;4995363;28;19965;-78
2021/12/13 08:06:18;;;;;;;;;;;;;;;4.15;94.54;97633.53;4995054;28;19950;-78
2021/12/13 08:08:49;;;;;;;;;;;;;;;4.17;94.26;97634.19;4977936;28;19958;-79
2021/12/13 08:11:18;;;;;;;;;;;;;;;4.18;94.36;97633.22;4995172;28;19947;-78
2021/12/13 08:13:54;;;;;;;;;;;;;;;4.15;94.31;97634.34;4994914;28;19977;-78
2021/12/13 08:16:28;;;;;;;;;;;;;;;4.10;94.23;97633.97;4961646;28;19957;-78
2021/12/13 08:19:03;;;;;;;;;;;;;;;4.08;94.73;97638.50;4994789;28;19991;-78
2021/12/13 08:21:29;;;;;;;;;;;;;;;4.10;94.58;97638.34;4995610;28;20358;-78
2021/12/13 08:24:00;;;;;;;;;;;;;;;4.12;95.08;97637.25;4994853;28;19951;-78
2021/12/13 08:26:29;;;;;;;;;;;;;;;4.12;94.88;97634.63;4977605;28;19964;-78
2021/12/13 08:28:56;;;;;;;;;;;;;;;4.12;95.24;97639.84;4994937;28;19968;-77
2021/12/13 08:31:31;;;;;;;;;;;;;;;4.12;95.14;97642.44;4994729;28;19953;-77
2021/12/13 08:33:59;;;;;;;;;;;;;;;4.14;95.42;97634.50;4961600;28;19982;-78
2021/12/13 08:36:33;;;;;;;;;;;;;;;4.18;96.15;97641.00;4977536;28;19971;-79
2021/12/13 08:39:05;;;;;;;;;;;;;;;4.39;97.87;97645.91;4981350;28;20317;-78
2021/12/13 08:41:34;;;;;;;;;;;;;;;4.65;100.00;97645.97;4994357;28;19960;-78
2021/12/13 08:44:09;;;;;;;;;;;;;;;5.20;100.00;97643.06;4981397;28;19958;-78
2021/12/13 08:46:44;;;;;;;;;;;;;;;5.63;94.18;97649.16;4994359;28;19965;-77
2021/12/13 08:49:15;;;;;;;;;;;;;;;5.62;90.10;97647.50;4994432;28;19971;-77
2021/12/13 08:51:50;;;;;;;;;;;;;;;5.44;90.09;97652.81;4994449;28;20351;-78
2021/12/13 08:54:16;;;;;;;;;;;;;;;5.23;90.17;97653.19;4994341;28;19972;-80
2021/12/13 08:56:46;;;;;;;;;;;;;;;5.07;90.61;97661.69;4994322;28;19960;-78
2021/12/13 08:59:23;;;;;;;;;;;;;;;4.94;91.62;97656.09;4994160;28;20000;-78
2021/12/13 09:01:55;;;;;;;;;;;;;;;4.83;92.15;97654.56;4994522;28;19962;-78
2021/12/13 09:04:31;;;;;;;;;;;;;;;4.80;92.45;97659.22;4976905;28;19947;-78
2021/12/13 09:06:59;;;;;;;;;;;;;;;4.73;92.49;97658.22;4994363;28;19968;-78
2021/12/13 09:09:26;;;;;;;;;;;;;;;4.66;93.03;97664.00;4994127;28;20036;-79
2021/12/13 09:12:07;;;;;;;;;;;;;;;4.66;93.24;97671.81;4994283;28;20431;-77
2021/12/13 09:14:38;;;;;;;;;;;;;;;4.67;93.42;97667.41;4994144;28;20324;-80
2021/12/13 09:17:09;;;;;;;;;;;;;;;4.63;93.77;97669.50;4976757;28;19982;-77
2021/12/13 09:19:48;;;;;;;;;;;;;;;4.57;94.03;97674.47;4994379;28;19976;-77
2021/12/13 09:22:16;;;;;;;;;;;;;;;4.54;94.12;97672.19;4965324;28;19946;-76
2021/12/13 09:24:45;;;;;;;;;;;;;;;4.50;94.97;97674.28;4994176;28;19959;-76
2021/12/13 09:27:18;;;;;;;;;;;;;;;4.47;95.41;97675.38;4993991;28;19950;-77
2021/12/13 09:30:05;;;;;;;;;;;;;;;4.48;96.48;97671.81;4994017;28;19958;-76
2021/12/13 09:32:38;;;;;;;;;;;;;;;4.51;95.98;97678.47;4994536;28;19963;-78
2021/12/13 09:35:19;;;;;;;;;;;;;;;4.53;95.98;97673.94;4993086;28;20342;-76
2021/12/13 09:37:45;;;;;;;;;;;;;;;4.52;96.05;97674.94;4993964;28;20395;-76
2021/12/13 09:40:15;;;;;;;;;;;;;;;4.53;97.13;97668.75;4994009;28;19959;-76
2021/12/13 09:42:49;;;;;;;;;;;;;;;4.55;96.91;97658.22;4994242;28;20326;-77
2021/12/13 09:45:21;;;;;;;;;;;;;;;4.63;96.17;97656.50;4993848;28;20313;-77
2021/12/13 09:47:47;;;;;;;;;;;;;;;4.72;96.07;97652.19;4994432;28;19965;-77
2021/12/13 09:50:17;;;;;;;;;;;;;;;4.82;95.93;97647.72;4976496;28;19998;-77
2021/12/13 09:52:55;;;;;;;;;;;;;;;4.98;96.41;97648.81;4994477;28;19959;-77
2021/12/13 09:55:27;;;;;;;;;;;;;;;5.16;96.10;97646.16;4996915;28;19972;-77
2021/12/13 09:58:03;;;;;;;;;;;;;;;5.31;95.62;97644.59;4980319;28;19965;-77
2021/12/13 10:00:35;;;;;;;;;;;;;;;5.44;95.55;97639.00;4997382;28;19951;-78
2021/12/13 10:03:04;;;;;;;;;;;;;;;5.85;100.00;97641.72;4997948;28;19958;-77
2021/12/13 10:05:35;;;;;;;;;;;;;;;6.06;94.65;97643.94;4997418;28;19964;-78
2021/12/13 10:08:04;;;;;;;;;;;;;;;6.13;93.04;97639.72;4997986;28;19956;-78
2021/12/13 10:10:34;;;;;;;;;;;;;;;6.14;92.12;97632.72;4997266;28;19956;-78
2021/12/13 10:13:02;;;;;;;;;;;;;;;6.12;91.98;97637.28;4979966;28;19963;-78
2021/12/13 10:15:31;;;;;;;;;;;;;;;6.06;91.63;97629.13;4996922;28;20332;-77
2021/12/13 10:18:08;;;;;;;;;;;;;;;6.02;91.51;97630.41;4997371;28;19992;-77
2021/12/13 10:20:38;;;;;;;;;;;;;;;6.01;91.84;97628.78;4997200;28;20347;-78
2021/12/13 10:23:08;;;;;;;;;;;;;;;6.06;92.31;97636.94;4997457;28;19959;-78
2021/12/13 10:25:36;;;;;;;;;;;;;;;6.10;92.75;97632.22;4997036;28;19963;-77
2021/12/13 10:28:06;;;;;;;;;;;;;;;6.13;92.39;97631.91;4997108;28;20317;-77
2021/12/13 10:30:35;;;;;;;;;;;;;;;6.15;92.56;97629.94;4997420;28;20312;-77
2021/12/13 10:33:06;;;;;;;;;;;;;;;6.15;92.74;97627.34;4996807;28;19953;-77
2021/12/13 10:35:36;;;;;;;;;;;;;;;6.16;92.66;97633.38;4996887;28;20447;-78
2021/12/13 10:38:14;;;;;;;;;;;;;;;6.18;93.29;97634.84;4979650;28;19955;-77
2021/12/13 10:40:46;;;;;;;;;;;;;;;6.16;92.45;97634.19;4986403;28;19953;-78
2021/12/13 10:43:18;;;;;;;;;;;;;;;6.11;92.45;97620.84;4997028;28;19962;-78
2021/12/13 10:45:55;;;;;;;;;;;;;;;6.10;93.12;97620.00;4996783;28;19958;-78
2021/12/13 10:48:22;;;;;;;;;;;;;;;6.05;93.17;97617.09;4996757;28;20346;-77
2021/12/13 10:50:56;;;;;;;;;;;;;;;6.00;92.66;97623.75;4996686;28;19968;-78
2021/12/13 10:53:23;;;;;;;;;;;;;;;5.97;94.18;97619.66;4996532;28;20339;-78
2021/12/13 10:55:52;;;;;;;;;;;;;;;5.97;94.28;97614.47;4996503;28;19970;-77
2021/12/13 10:58:20;;;;;;;;;;;;;;;6.02;94.74;97617.38;4979143;28;19960;-78
2021/12/13 11:00:48;;;;;;;;;;;;;;;6.07;95.03;97616.94;4996350;28;19960;-78
2021/12/13 11:03:17;;;;;;;;;;;;;;;6.06;95.38;97613.50;4996561;28;19952;-78
2021/12/13 11:05:44;;;;;;;;;;;;;;;6.10;94.91;97603.56;4995857;28;19957;-78
2021/12/13 11:08:11;;;;;;;;;;;;;;;6.16;94.76;97613.34;4996517;28;19970;-78
2021/12/13 11:10:41;;;;;;;;;;;;;;;6.21;94.85;97611.06;4996038;28;19963;-78
2021/12/13 11:13:10;;;;;;;;;;;;;;;6.23;94.04;97603.09;4996225;28;19955;-78
2021/12/13 11:15:38;;;;;;;;;;;;;;;6.25;94.79;97607.16;4995880;28;19964;-78
2021/12/13 11:18:06;;;;;;;;;;;;;;;6.31;94.55;97605.72;4996129;28;19978;-78
2021/12/13 11:20:37;;;;;;;;;;;;;;;6.33;94.49;97606.38;4996224;28;19960;-78
2021/12/13 11:23:04;;;;;;;;;;;;;;;6.34;95.18;97600.19;4996054;28;20409;-78
2021/12/13 11:25:36;;;;;;;;;;;;;;;6.25;94.30;97595.94;4996022;28;19980;-78
2021/12/13 11:28:02;;;;;;;;;;;;;;;6.21;95.02;97590.22;4978503;28;19950;-78
2021/12/13 11:30:30;;;;;;;;;;;;;;;6.26;95.05;97582.75;4996077;28;19958;-78
2021/12/13 11:32:56;;;;;;;;;;;;;;;6.32;94.84;97589.13;4995394;28;19964;-77
2021/12/13 11:35:40;;;;;;;;;;;;;;;6.27;94.67;97580.97;4978299;28;19966;-78
2021/12/13 11:38:26;;;;;;;;;;;;;;;6.23;95.40;97590.88;4995507;28;19955;-78
2021/12/13 11:41:19;;;;;;;;;;;;;;;6.27;94.90;97581.78;4995766;28;19950;-78
2021/12/13 11:44:12;;;;;;;;;;;;;;;6.30;94.97;97580.66;4995819;28;19965;-78
2021/12/13 11:46:57;;;;;;;;;;;;;;;6.32;94.96;97576.09;4995566;28;19951;-79
2021/12/13 11:49:42;;;;;;;;;;;;;;;6.38;95.11;97595.44;4995531;28;20328;-78
2021/12/13 11:52:26;;;;;;;;;;;;;;;6.42;94.41;97583.72;4995482;28;19951;-78
2021/12/13 11:55:04;;;;;;;;;;;;;;;6.47;94.18;97584.88;4995332;28;19969;-79
2021/12/13 11:57:49;;;;;;;;;;;;;;;6.44;93.93;97586.97;4981795;28;19953;-78
2021/12/13 12:00:34;;;;;;;;;;;;;;;6.43;94.58;97583.56;4978096;28;20316;-80
2021/12/13 12:03:20;;;;;;;;;;;;;;;6.37;94.50;97573.81;4989360;28;19955;-78
2021/12/13 12:06:04;;;;;;;;;;;;;;;6.38;94.86;97572.00;4983168;28;19959;-78
2021/12/13 12:08:43;;;;;;;;;;;;;;;6.44;94.63;97577.38;4995210;28;20343;-78
2021/12/13 12:11:11;;;;;;;;;;;;;;;6.52;94.53;97578.38;4995104;28;20032;-78
2021/12/13 12:14:03;;;;;;;;;;;;;;;6.57;94.55;97579.47;4995159;28;19950;-79
2021/12/13 12:16:29;;;;;;;;;;;;;;;6.56;93.78;97579.66;4985529;28;19950;-78
2021/12/13 12:18:58;;;;;;;;;;;;;;;6.52;93.75;97575.75;4995770;28;20329;-78
2021/12/13 12:21:36;;;;;;;;;;;;;;;6.51;94.05;97574.94;4994299;28;19967;-78
2021/12/13 12:24:08;;;;;;;;;;;;;;;6.55;94.57;97572.81;4994826;28;19955;-78
2021/12/13 12:26:34;;;;;;;;;;;;;;;6.57;94.80;97563.84;4994743;28;19964;-78
2021/12/13 12:29:07;;;;;;;;;;;;;;;6.63;94.40;97565.78;4994987;28;19959;-78
2021/12/13 12:31:36;;;;;;;;;;;;;;;6.72;94.33;97571.84;4982408;28;19956;-77
2021/12/13 12:34:02;;;;;;;;;;;;;;;6.77;94.41;97566.13;4994600;28;19952;-79
2021/12/13 12:36:42;;;;;;;;;;;;;;;6.81;93.66;97563.00;4994638;28;19994;-78
2021/12/13 12:39:44;;;;;;;;;;;;;;;6.84;93.59;97565.25;4994619;28;19960;-78
2021/12/13 12:42:10;;;;;;;;;;;;;;;6.86;92.99;97559.88;4981471;28;19952;-78
2021/12/13 12:44:41;;;;;;;;;;;;;;;6.81;93.37;97551.75;4994648;28;20380;-78
2021/12/13 12:47:08;;;;;;;;;;;;;;;6.78;93.70;97547.66;4994738;28;19969;-78
2021/12/13 12:49:34;;;;;;;;;;;;;;;6.80;94.00;97550.13;4994425;28;19954;-78
2021/12/13 12:52:05;;;;;;;;;;;;;;;6.81;93.94;97539.53;4977169;28;20461;-80
2021/12/13 12:54:34;;;;;;;;;;;;;;;6.76;94.38;97541.84;4986469;28;20345;-78
2021/12/13 12:57:01;;;;;;;;;;;;;;;6.68;92.85;97544.47;4994190;28;19964;-78
2021/12/13 12:59:29;;;;;;;;;;;;;;;6.61;94.69;97541.69;4994523;28;19949;-78
2021/12/13 13:02:04;;;;;;;;;;;;;;;6.56;95.63;97551.81;4994296;28;19948;-78
2021/12/13 13:04:38;;;;;;;;;;;;;;;6.53;96.19;97544.31;4994106;28;19954;-78
2021/12/13 13:07:12;;;;;;;;;;;;;;;6.56;96.37;97543.19;4994155;28;19955;-79
2021/12/13 13:09:53;;;;;;;;;;;;;;;6.61;96.06;97541.69;4994144;28;19962;-79
2021/12/13 13:12:28;;;;;;;;;;;;;;;6.66;96.44;97538.59;4976972;28;19957;-78
2021/12/13 13:14:56;;;;;;;;;;;;;;;6.70;96.14;97539.91;4994490;28;19962;-79
2021/12/13 13:17:29;;;;;;;;;;;;;;;6.77;96.82;97542.66;4993916;28;20327;-79
2021/12/13 13:20:01;;;;;;;;;;;;;;;6.81;96.37;97534.31;4980888;28;19958;-79
2021/12/13 13:22:32;;;;;;;;;;;;;;;6.86;95.55;97539.03;4976847;28;20327;-78
2021/12/13 13:25:01;;;;;;;;;;;;;;;6.91;95.30;97537.56;4993983;28;19961;-78